Muscatine, IA (52761)

7:13 PM CST on February 09, 2016 (GMT -0600)
HADS | | Change Station
CLOSE
Current Station
Personal Weather Station
Location: Muscatine, IA
Elevation: 548 ft
Nearby Weather Stations

Elev 548 ft 41.43 °N, 91.02 °W | Updated 43 minutes ago

Overcast
Overcast
15.0 °F
Feels Like 5 °F
N
7.0
Wind Variable Wind from WNW
Gusts 13.0 mph

Today
High -- | Low -- °F
--% Chance of Precip.
Yesterday
High -- | Low -- °F
Precip. -- in
Pressure 30.12 in
Visibility 10.0 miles
Clouds Overcast 1900 ft
Windchill 5 °F
Dew Point Not available.
Humidity Not available.
Rainfall in
Snow Depth Not available.
7:07 AM 5:29 PM
Waxing Crescent, 3% visible
METAR KMUT 100055Z AUTO 31015KT 10SM OVC019 M10/M15 A3012 RMK AO2
Pressure 30.12 in
Visibility 10.0 miles
Clouds Overcast 1900 ft
Windchill 5 °F
Dew Point Not available.
Humidity Not available.
Rainfall in
Snow Depth Not available.
7:07 AM 5:29 PM
Waxing Crescent, 3% visible
METAR KMUT 100055Z AUTO 31015KT 10SM OVC019 M10/M15 A3012 RMK AO2

10-Day Weather Forecast

Almanac

Astronomy

Feb. 09, 2016 Rise Set
Actual Time
Civil Twilight
Nautical Twilight
Astronomical Twilight
Moon
Length of Visible Light
Length of Day
Tomorrow will be .
, % of the Moon is Illuminated

Today's Extremes

State Highs State Lows

Community

WunderPhotos

Upload Photos

1,891,752 photos uploaded!

WunderBlog® & News

Nearby

Air Quality

  Air Quality AQ Index Pollutant
Not available.

Snow Depth

Station Depth Elevation

Earthquake Activity

City Distance Mag. Time & Date
Minimum magnitude displayed is 2.5.

Coastal Water Temperatures

Place Temperature

Stations

Nearby Weather Stations

Station Location Temp. Windchill Dew Point Humidity Wind Precip. Elev Updated Type
                   

Watches & Warnings

There are currently no watches in effect.